sensor_id;sensor_type;location;lat;lon;timestamp;P1;durP1;ratioP1;P2;durP2;ratioP2
49962;SDS011;36180;57.678;11.910;2024-03-08T00:02:19;19.10;;;9.80;;
49962;SDS011;36180;57.678;11.910;2024-03-08T00:04:46;15.75;;;8.38;;
49962;SDS011;36180;57.678;11.910;2024-03-08T00:07:13;17.27;;;8.95;;
49962;SDS011;36180;57.678;11.910;2024-03-08T00:09:40;14.50;;;8.70;;
49962;SDS011;36180;57.678;11.910;2024-03-08T00:12:07;15.23;;;9.27;;
49962;SDS011;36180;57.678;11.910;2024-03-08T00:14:35;13.38;;;8.77;;
49962;SDS011;36180;57.678;11.910;2024-03-08T00:17:02;15.70;;;8.90;;
49962;SDS011;36180;57.678;11.910;2024-03-08T00:19:30;14.32;;;8.98;;
49962;SDS011;36180;57.678;11.910;2024-03-08T00:21:57;14.18;;;9.30;;
49962;SDS011;36180;57.678;11.910;2024-03-08T00:24:24;15.00;;;9.20;;
49962;SDS011;36180;57.678;11.910;2024-03-08T00:26:51;16.75;;;9.40;;
49962;SDS011;36180;57.678;11.910;2024-03-08T00:29:18;16.77;;;9.40;;
49962;SDS011;36180;57.678;11.910;2024-03-08T00:31:46;15.48;;;8.85;;
49962;SDS011;36180;57.678;11.910;2024-03-08T00:34:13;17.38;;;9.35;;
49962;SDS011;36180;57.678;11.910;2024-03-08T00:36:41;18.33;;;9.73;;
49962;SDS011;36180;57.678;11.910;2024-03-08T00:39:09;18.45;;;9.32;;
49962;SDS011;36180;57.678;11.910;2024-03-08T00:41:37;21.70;;;9.73;;
49962;SDS011;36180;57.678;11.910;2024-03-08T00:44:04;18.88;;;9.60;;
49962;SDS011;36180;57.678;11.910;2024-03-08T00:46:31;15.18;;;9.70;;
49962;SDS011;36180;57.678;11.910;2024-03-08T00:48:58;12.45;;;9.07;;
49962;SDS011;36180;57.678;11.910;2024-03-08T00:51:26;15.60;;;8.93;;
49962;SDS011;36180;57.678;11.910;2024-03-08T00:53:54;18.30;;;9.27;;
49962;SDS011;36180;57.678;11.910;2024-03-08T00:56:21;14.55;;;9.70;;
49962;SDS011;36180;57.678;11.910;2024-03-08T00:58:49;14.65;;;9.15;;
49962;SDS011;36180;57.678;11.910;2024-03-08T01:01:18;14.95;;;8.65;;
49962;SDS011;36180;57.678;11.910;2024-03-08T01:03:45;16.40;;;9.20;;
49962;SDS011;36180;57.678;11.910;2024-03-08T01:06:12;13.65;;;8.77;;
49962;SDS011;36180;57.678;11.910;2024-03-08T01:08:39;17.63;;;9.25;;
49962;SDS011;36180;57.678;11.910;2024-03-08T01:11:08;17.92;;;8.85;;
49962;SDS011;36180;57.678;11.910;2024-03-08T01:13:36;14.60;;;9.10;;
49962;SDS011;36180;57.678;11.910;2024-03-08T01:16:03;18.35;;;9.75;;
49962;SDS011;36180;57.678;11.910;2024-03-08T01:18:31;18.50;;;9.45;;
49962;SDS011;36180;57.678;11.910;2024-03-08T01:20:58;15.40;;;9.77;;
49962;SDS011;36180;57.678;11.910;2024-03-08T01:23:25;16.35;;;8.85;;
49962;SDS011;36180;57.678;11.910;2024-03-08T01:25:52;20.08;;;9.43;;
49962;SDS011;36180;57.678;11.910;2024-03-08T01:28:23;14.38;;;8.93;;
49962;SDS011;36180;57.678;11.910;2024-03-08T01:30:51;16.75;;;9.80;;
49962;SDS011;36180;57.678;11.910;2024-03-08T01:33:21;17.33;;;9.40;;
49962;SDS011;36180;57.678;11.910;2024-03-08T01:35:48;13.02;;;8.68;;
49962;SDS011;36180;57.678;11.910;2024-03-08T01:38:15;19.25;;;9.68;;
49962;SDS011;36180;57.678;11.910;2024-03-08T01:40:42;17.13;;;10.68;;
49962;SDS011;36180;57.678;11.910;2024-03-08T01:43:18;16.40;;;9.88;;
49962;SDS011;36180;57.678;11.910;2024-03-08T01:45:47;14.75;;;10.40;;
49962;SDS011;36180;57.678;11.910;2024-03-08T01:48:14;15.77;;;9.75;;
49962;SDS011;36180;57.678;11.910;2024-03-08T01:50:42;17.63;;;10.65;;
49962;SDS011;36180;57.678;11.910;2024-03-08T01:53:09;19.23;;;10.68;;
49962;SDS011;36180;57.678;11.910;2024-03-08T01:55:37;17.02;;;9.98;;
49962;SDS011;36180;57.678;11.910;2024-03-08T01:58:05;19.33;;;10.60;;
49962;SDS011;36180;57.678;11.910;2024-03-08T02:00:32;18.85;;;9.68;;
49962;SDS011;36180;57.678;11.910;2024-03-08T02:03:02;17.10;;;9.73;;
49962;SDS011;36180;57.678;11.910;2024-03-08T02:05:29;18.35;;;9.85;;
49962;SDS011;36180;57.678;11.910;2024-03-08T02:07:56;17.23;;;10.75;;
49962;SDS011;36180;57.678;11.910;2024-03-08T02:10:23;15.38;;;10.38;;
49962;SDS011;36180;57.678;11.910;2024-03-08T02:12:50;22.88;;;9.93;;
49962;SDS011;36180;57.678;11.910;2024-03-08T02:15:17;16.05;;;9.32;;
49962;SDS011;36180;57.678;11.910;2024-03-08T02:17:44;19.27;;;10.77;;
49962;SDS011;36180;57.678;11.910;2024-03-08T02:20:14;17.30;;;10.27;;
49962;SDS011;36180;57.678;11.910;2024-03-08T02:22:42;16.70;;;10.32;;
49962;SDS011;36180;57.678;11.910;2024-03-08T02:25:09;19.00;;;10.65;;
49962;SDS011;36180;57.678;11.910;2024-03-08T02:27:37;19.25;;;10.82;;
49962;SDS011;36180;57.678;11.910;2024-03-08T02:30:04;18.85;;;10.20;;
49962;SDS011;36180;57.678;11.910;2024-03-08T02:32:32;19.88;;;10.68;;
49962;SDS011;36180;57.678;11.910;2024-03-08T02:34:59;18.50;;;10.93;;
49962;SDS011;36180;57.678;11.910;2024-03-08T02:37:26;19.40;;;11.05;;
49962;SDS011;36180;57.678;11.910;2024-03-08T02:39:55;15.43;;;10.55;;
49962;SDS011;36180;57.678;11.910;2024-03-08T02:42:22;19.48;;;11.52;;
49962;SDS011;36180;57.678;11.910;2024-03-08T02:44:49;22.10;;;11.45;;
49962;SDS011;36180;57.678;11.910;2024-03-08T02:47:16;18.15;;;11.48;;
49962;SDS011;36180;57.678;11.910;2024-03-08T02:49:43;19.73;;;11.40;;
49962;SDS011;36180;57.678;11.910;2024-03-08T02:52:10;19.67;;;11.70;;
49962;SDS011;36180;57.678;11.910;2024-03-08T02:54:37;18.45;;;11.75;;
49962;SDS011;36180;57.678;11.910;2024-03-08T02:57:06;27.17;;;12.75;;
49962;SDS011;36180;57.678;11.910;2024-03-08T02:59:33;24.98;;;13.13;;
49962;SDS011;36180;57.678;11.910;2024-03-08T03:02:00;24.48;;;12.88;;
49962;SDS011;36180;57.678;11.910;2024-03-08T03:04:27;20.70;;;12.50;;
49962;SDS011;36180;57.678;11.910;2024-03-08T03:06:54;23.25;;;12.95;;
49962;SDS011;36180;57.678;11.910;2024-03-08T03:09:21;21.45;;;12.88;;
49962;SDS011;36180;57.678;11.910;2024-03-08T03:11:52;25.45;;;14.02;;
49962;SDS011;36180;57.678;11.910;2024-03-08T03:14:22;28.30;;;14.27;;
49962;SDS011;36180;57.678;11.910;2024-03-08T03:16:49;25.02;;;13.73;;
49962;SDS011;36180;57.678;11.910;2024-03-08T03:19:16;23.10;;;13.23;;
49962;SDS011;36180;57.678;11.910;2024-03-08T03:21:43;24.38;;;14.07;;
49962;SDS011;36180;57.678;11.910;2024-03-08T03:24:09;21.75;;;13.73;;
49962;SDS011;36180;57.678;11.910;2024-03-08T03:26:37;24.77;;;13.50;;
49962;SDS011;36180;57.678;11.910;2024-03-08T03:29:06;26.27;;;14.45;;
49962;SDS011;36180;57.678;11.910;2024-03-08T03:31:35;27.52;;;13.95;;
49962;SDS011;36180;57.678;11.910;2024-03-08T03:34:02;23.23;;;13.63;;
49962;SDS011;36180;57.678;11.910;2024-03-08T03:36:30;26.00;;;13.60;;
49962;SDS011;36180;57.678;11.910;2024-03-08T03:38:57;31.88;;;14.60;;
49962;SDS011;36180;57.678;11.910;2024-03-08T03:41:35;25.67;;;13.48;;
49962;SDS011;36180;57.678;11.910;2024-03-08T03:44:03;23.52;;;14.10;;
49962;SDS011;36180;57.678;11.910;2024-03-08T03:46:31;25.70;;;13.82;;
49962;SDS011;36180;57.678;11.910;2024-03-08T03:49:00;25.63;;;13.30;;
49962;SDS011;36180;57.678;11.910;2024-03-08T03:51:28;22.88;;;13.52;;
49962;SDS011;36180;57.678;11.910;2024-03-08T03:53:55;22.65;;;13.68;;
49962;SDS011;36180;57.678;11.910;2024-03-08T03:56:24;24.38;;;12.88;;
49962;SDS011;36180;57.678;11.910;2024-03-08T03:58:51;24.25;;;11.82;;
49962;SDS011;36180;57.678;11.910;2024-03-08T04:01:18;24.23;;;12.48;;
49962;SDS011;36180;57.678;11.910;2024-03-08T04:03:46;21.45;;;12.40;;
49962;SDS011;36180;57.678;11.910;2024-03-08T04:06:14;18.20;;;11.07;;
49962;SDS011;36180;57.678;11.910;2024-03-08T04:08:41;21.45;;;11.75;;
49962;SDS011;36180;57.678;11.910;2024-03-08T04:11:08;21.23;;;12.23;;
49962;SDS011;36180;57.678;11.910;2024-03-08T04:13:35;18.45;;;11.90;;
49962;SDS011;36180;57.678;11.910;2024-03-08T04:16:03;17.88;;;10.48;;
49962;SDS011;36180;57.678;11.910;2024-03-08T04:18:33;21.20;;;11.50;;
49962;SDS011;36180;57.678;11.910;2024-03-08T04:21:03;18.20;;;11.52;;
49962;SDS011;36180;57.678;11.910;2024-03-08T04:23:33;27.85;;;12.70;;
49962;SDS011;36180;57.678;11.910;2024-03-08T04:26:00;22.63;;;11.63;;
49962;SDS011;36180;57.678;11.910;2024-03-08T04:28:28;18.77;;;11.85;;
49962;SDS011;36180;57.678;11.910;2024-03-08T04:30:56;19.27;;;11.77;;
49962;SDS011;36180;57.678;11.910;2024-03-08T04:33:25;20.15;;;12.00;;
49962;SDS011;36180;57.678;11.910;2024-03-08T04:35:53;20.55;;;12.98;;
49962;SDS011;36180;57.678;11.910;2024-03-08T04:38:20;20.30;;;12.02;;
49962;SDS011;36180;57.678;11.910;2024-03-08T04:40:48;21.98;;;12.85;;
49962;SDS011;36180;57.678;11.910;2024-03-08T04:43:15;23.75;;;12.38;;
49962;SDS011;36180;57.678;11.910;2024-03-08T04:45:43;19.75;;;12.35;;
49962;SDS011;36180;57.678;11.910;2024-03-08T04:48:10;19.08;;;11.50;;
49962;SDS011;36180;57.678;11.910;2024-03-08T04:50:37;24.15;;;12.30;;
49962;SDS011;36180;57.678;11.910;2024-03-08T04:53:05;21.50;;;12.18;;
49962;SDS011;36180;57.678;11.910;2024-03-08T04:55:33;20.00;;;11.32;;
49962;SDS011;36180;57.678;11.910;2024-03-08T04:58:01;19.58;;;12.15;;
49962;SDS011;36180;57.678;11.910;2024-03-08T05:00:29;25.35;;;13.45;;
49962;SDS011;36180;57.678;11.910;2024-03-08T05:02:56;18.83;;;11.55;;
49962;SDS011;36180;57.678;11.910;2024-03-08T05:05:23;18.70;;;11.50;;
49962;SDS011;36180;57.678;11.910;2024-03-08T05:07:51;18.65;;;11.15;;
49962;SDS011;36180;57.678;11.910;2024-03-08T05:10:18;24.30;;;12.00;;
49962;SDS011;36180;57.678;11.910;2024-03-08T05:12:45;18.67;;;11.25;;
49962;SDS011;36180;57.678;11.910;2024-03-08T05:15:13;21.63;;;12.05;;
49962;SDS011;36180;57.678;11.910;2024-03-08T05:17:41;20.35;;;11.18;;
49962;SDS011;36180;57.678;11.910;2024-03-08T05:20:08;20.88;;;11.95;;
49962;SDS011;36180;57.678;11.910;2024-03-08T05:22:38;18.52;;;11.07;;
49962;SDS011;36180;57.678;11.910;2024-03-08T05:25:05;20.08;;;11.63;;
49962;SDS011;36180;57.678;11.910;2024-03-08T05:27:34;21.50;;;11.50;;
49962;SDS011;36180;57.678;11.910;2024-03-08T05:30:01;20.48;;;11.20;;
49962;SDS011;36180;57.678;11.910;2024-03-08T05:32:30;23.67;;;11.80;;
49962;SDS011;36180;57.678;11.910;2024-03-08T05:34:57;19.00;;;11.23;;
49962;SDS011;36180;57.678;11.910;2024-03-08T05:37:24;19.80;;;10.75;;
49962;SDS011;36180;57.678;11.910;2024-03-08T05:39:51;17.63;;;10.60;;
49962;SDS011;36180;57.678;11.910;2024-03-08T05:42:19;18.63;;;10.82;;
49962;SDS011;36180;57.678;11.910;2024-03-08T05:44:46;20.60;;;10.43;;
49962;SDS011;36180;57.678;11.910;2024-03-08T05:47:14;19.50;;;10.38;;
49962;SDS011;36180;57.678;11.910;2024-03-08T05:49:44;17.45;;;10.52;;
49962;SDS011;36180;57.678;11.910;2024-03-08T05:52:11;23.75;;;12.25;;
49962;SDS011;36180;57.678;11.910;2024-03-08T05:54:39;17.50;;;10.70;;
49962;SDS011;36180;57.678;11.910;2024-03-08T05:57:06;20.20;;;11.13;;
49962;SDS011;36180;57.678;11.910;2024-03-08T05:59:33;18.27;;;10.45;;
49962;SDS011;36180;57.678;11.910;2024-03-08T06:02:01;17.73;;;10.73;;
49962;SDS011;36180;57.678;11.910;2024-03-08T06:04:28;13.82;;;9.48;;
49962;SDS011;36180;57.678;11.910;2024-03-08T06:06:57;19.80;;;10.63;;
49962;SDS011;36180;57.678;11.910;2024-03-08T06:09:24;16.73;;;10.38;;
49962;SDS011;36180;57.678;11.910;2024-03-08T06:11:51;21.17;;;10.60;;
49962;SDS011;36180;57.678;11.910;2024-03-08T06:14:19;24.17;;;10.52;;
49962;SDS011;36180;57.678;11.910;2024-03-08T06:16:46;20.13;;;10.57;;
49962;SDS011;36180;57.678;11.910;2024-03-08T06:19:15;18.02;;;10.55;;
49962;SDS011;36180;57.678;11.910;2024-03-08T06:21:42;20.95;;;10.90;;
49962;SDS011;36180;57.678;11.910;2024-03-08T06:24:10;20.48;;;10.65;;
49962;SDS011;36180;57.678;11.910;2024-03-08T06:26:37;20.58;;;10.38;;
49962;SDS011;36180;57.678;11.910;2024-03-08T06:29:04;20.98;;;10.85;;
49962;SDS011;36180;57.678;11.910;2024-03-08T06:31:32;18.15;;;10.77;;
49962;SDS011;36180;57.678;11.910;2024-03-08T06:33:59;19.92;;;10.85;;
49962;SDS011;36180;57.678;11.910;2024-03-08T06:36:26;21.48;;;10.85;;
49962;SDS011;36180;57.678;11.910;2024-03-08T06:38:53;19.38;;;11.02;;
49962;SDS011;36180;57.678;11.910;2024-03-08T06:41:22;18.90;;;11.55;;
49962;SDS011;36180;57.678;11.910;2024-03-08T06:43:49;17.77;;;10.32;;
49962;SDS011;36180;57.678;11.910;2024-03-08T06:46:22;19.77;;;10.30;;
49962;SDS011;36180;57.678;11.910;2024-03-08T06:48:49;18.92;;;10.95;;
49962;SDS011;36180;57.678;11.910;2024-03-08T06:51:16;16.33;;;10.65;;
49962;SDS011;36180;57.678;11.910;2024-03-08T06:53:43;21.60;;;11.70;;
49962;SDS011;36180;57.678;11.910;2024-03-08T06:56:10;20.98;;;10.48;;
49962;SDS011;36180;57.678;11.910;2024-03-08T06:58:38;18.95;;;10.52;;
49962;SDS011;36180;57.678;11.910;2024-03-08T07:01:05;19.10;;;10.18;;
49962;SDS011;36180;57.678;11.910;2024-03-08T07:03:32;22.02;;;9.98;;
49962;SDS011;36180;57.678;11.910;2024-03-08T07:05:59;17.73;;;10.38;;
49962;SDS011;36180;57.678;11.910;2024-03-08T07:08:27;18.90;;;10.30;;
49962;SDS011;36180;57.678;11.910;2024-03-08T07:10:55;23.02;;;10.18;;
49962;SDS011;36180;57.678;11.910;2024-03-08T07:13:23;16.95;;;9.18;;
49962;SDS011;36180;57.678;11.910;2024-03-08T07:15:51;14.35;;;9.77;;
49962;SDS011;36180;57.678;11.910;2024-03-08T07:18:18;20.60;;;9.77;;
49962;SDS011;36180;57.678;11.910;2024-03-08T07:20:45;20.42;;;10.52;;
49962;SDS011;36180;57.678;11.910;2024-03-08T07:23:12;17.38;;;9.73;;
49962;SDS011;36180;57.678;11.910;2024-03-08T07:25:59;15.18;;;9.50;;
49962;SDS011;36180;57.678;11.910;2024-03-08T07:28:26;17.27;;;9.70;;
49962;SDS011;36180;57.678;11.910;2024-03-08T07:30:57;15.15;;;9.13;;
49962;SDS011;36180;57.678;11.910;2024-03-08T07:33:38;13.57;;;9.00;;
49962;SDS011;36180;57.678;11.910;2024-03-08T07:36:05;13.10;;;9.05;;
49962;SDS011;36180;57.678;11.910;2024-03-08T07:38:32;20.65;;;9.00;;
49962;SDS011;36180;57.678;11.910;2024-03-08T07:40:59;15.35;;;8.50;;
49962;SDS011;36180;57.678;11.910;2024-03-08T07:43:26;12.90;;;8.18;;
49962;SDS011;36180;57.678;11.910;2024-03-08T07:45:53;15.85;;;8.35;;
49962;SDS011;36180;57.678;11.910;2024-03-08T07:48:22;14.43;;;9.23;;
49962;SDS011;36180;57.678;11.910;2024-03-08T07:50:49;14.23;;;8.15;;
49962;SDS011;36180;57.678;11.910;2024-03-08T07:53:16;14.57;;;8.48;;
49962;SDS011;36180;57.678;11.910;2024-03-08T07:55:43;14.15;;;8.05;;
49962;SDS011;36180;57.678;11.910;2024-03-08T07:58:10;17.27;;;8.23;;
49962;SDS011;36180;57.678;11.910;2024-03-08T08:00:38;15.65;;;8.52;;
49962;SDS011;36180;57.678;11.910;2024-03-08T08:03:08;16.48;;;8.48;;
49962;SDS011;36180;57.678;11.910;2024-03-08T08:05:36;16.10;;;8.10;;
49962;SDS011;36180;57.678;11.910;2024-03-08T08:08:04;12.45;;;8.38;;
49962;SDS011;36180;57.678;11.910;2024-03-08T08:10:31;16.00;;;8.02;;
49962;SDS011;36180;57.678;11.910;2024-03-08T08:12:58;13.20;;;7.80;;
49962;SDS011;36180;57.678;11.910;2024-03-08T08:15:25;15.15;;;7.22;;
49962;SDS011;36180;57.678;11.910;2024-03-08T08:17:53;18.00;;;8.50;;
49962;SDS011;36180;57.678;11.910;2024-03-08T08:20:20;14.30;;;8.15;;
49962;SDS011;36180;57.678;11.910;2024-03-08T08:22:50;13.05;;;6.93;;
49962;SDS011;36180;57.678;11.910;2024-03-08T08:25:17;15.48;;;7.57;;
49962;SDS011;36180;57.678;11.910;2024-03-08T08:27:45;18.95;;;7.57;;
49962;SDS011;36180;57.678;11.910;2024-03-08T08:30:12;10.50;;;7.32;;
49962;SDS011;36180;57.678;11.910;2024-03-08T08:32:40;12.45;;;6.78;;
49962;SDS011;36180;57.678;11.910;2024-03-08T08:35:07;10.65;;;7.07;;
49962;SDS011;36180;57.678;11.910;2024-03-08T08:37:38;14.27;;;7.03;;
49962;SDS011;36180;57.678;11.910;2024-03-08T08:40:07;13.35;;;6.70;;
49962;SDS011;36180;57.678;11.910;2024-03-08T08:42:35;11.45;;;6.40;;
49962;SDS011;36180;57.678;11.910;2024-03-08T08:45:03;11.02;;;6.10;;
49962;SDS011;36180;57.678;11.910;2024-03-08T08:47:33;11.60;;;6.00;;
49962;SDS011;36180;57.678;11.910;2024-03-08T08:50:00;15.55;;;6.07;;
49962;SDS011;36180;57.678;11.910;2024-03-08T08:52:29;11.43;;;5.90;;
49962;SDS011;36180;57.678;11.910;2024-03-08T08:54:56;11.02;;;6.05;;
49962;SDS011;36180;57.678;11.910;2024-03-08T08:57:24;9.60;;;5.97;;
49962;SDS011;36180;57.678;11.910;2024-03-08T08:59:52;10.50;;;6.53;;
49962;SDS011;36180;57.678;11.910;2024-03-08T09:02:20;11.65;;;6.35;;
49962;SDS011;36180;57.678;11.910;2024-03-08T09:04:47;10.63;;;5.80;;
49962;SDS011;36180;57.678;11.910;2024-03-08T09:07:15;7.53;;;5.43;;
49962;SDS011;36180;57.678;11.910;2024-03-08T09:09:44;9.95;;;6.00;;
49962;SDS011;36180;57.678;11.910;2024-03-08T09:12:11;30.08;;;6.18;;
49962;SDS011;36180;57.678;11.910;2024-03-08T09:14:39;9.55;;;5.50;;
49962;SDS011;36180;57.678;11.910;2024-03-08T09:17:07;9.65;;;5.25;;
49962;SDS011;36180;57.678;11.910;2024-03-08T09:19:34;9.50;;;5.43;;
49962;SDS011;36180;57.678;11.910;2024-03-08T09:22:01;8.75;;;5.15;;
49962;SDS011;36180;57.678;11.910;2024-03-08T09:24:30;10.40;;;5.40;;
49962;SDS011;36180;57.678;11.910;2024-03-08T09:26:57;8.50;;;5.07;;
49962;SDS011;36180;57.678;11.910;2024-03-08T09:29:24;9.65;;;5.43;;
49962;SDS011;36180;57.678;11.910;2024-03-08T09:31:53;10.02;;;5.82;;
49962;SDS011;36180;57.678;11.910;2024-03-08T09:34:20;9.75;;;5.40;;
49962;SDS011;36180;57.678;11.910;2024-03-08T09:36:47;10.70;;;4.68;;
49962;SDS011;36180;57.678;11.910;2024-03-08T09:39:16;9.07;;;5.10;;
49962;SDS011;36180;57.678;11.910;2024-03-08T09:41:45;9.30;;;4.65;;
49962;SDS011;36180;57.678;11.910;2024-03-08T09:44:13;9.10;;;4.97;;
49962;SDS011;36180;57.678;11.910;2024-03-08T09:46:40;12.25;;;4.47;;
49962;SDS011;36180;57.678;11.910;2024-03-08T09:49:08;9.32;;;4.90;;
49962;SDS011;36180;57.678;11.910;2024-03-08T09:51:36;7.78;;;4.45;;
49962;SDS011;36180;57.678;11.910;2024-03-08T09:54:06;10.68;;;4.07;;
49962;SDS011;36180;57.678;11.910;2024-03-08T09:56:34;6.38;;;3.85;;
49962;SDS011;36180;57.678;11.910;2024-03-08T09:59:01;8.20;;;4.45;;
49962;SDS011;36180;57.678;11.910;2024-03-08T10:01:58;6.55;;;4.13;;
49962;SDS011;36180;57.678;11.910;2024-03-08T10:04:26;9.07;;;4.40;;
49962;SDS011;36180;57.678;11.910;2024-03-08T10:06:53;18.08;;;10.25;;
49962;SDS011;36180;57.678;11.910;2024-03-08T10:09:22;11.93;;;6.20;;
49962;SDS011;36180;57.678;11.910;2024-03-08T10:11:50;13.85;;;5.30;;
49962;SDS011;36180;57.678;11.910;2024-03-08T10:14:17;10.50;;;4.78;;
49962;SDS011;36180;57.678;11.910;2024-03-08T10:16:44;12.55;;;5.68;;
49962;SDS011;36180;57.678;11.910;2024-03-08T10:19:12;13.18;;;5.30;;
49962;SDS011;36180;57.678;11.910;2024-03-08T10:21:48;12.90;;;5.10;;
49962;SDS011;36180;57.678;11.910;2024-03-08T10:24:17;10.60;;;5.07;;
49962;SDS011;36180;57.678;11.910;2024-03-08T10:26:44;13.57;;;4.78;;
49962;SDS011;36180;57.678;11.910;2024-03-08T10:29:11;10.68;;;4.80;;
49962;SDS011;36180;57.678;11.910;2024-03-08T10:31:42;10.27;;;4.50;;
49962;SDS011;36180;57.678;11.910;2024-03-08T10:34:10;9.45;;;4.45;;
49962;SDS011;36180;57.678;11.910;2024-03-08T10:36:37;8.98;;;4.40;;
49962;SDS011;36180;57.678;11.910;2024-03-08T10:39:09;9.63;;;4.85;;
49962;SDS011;36180;57.678;11.910;2024-03-08T10:41:43;11.70;;;4.28;;
49962;SDS011;36180;57.678;11.910;2024-03-08T10:44:14;7.25;;;3.83;;
49962;SDS011;36180;57.678;11.910;2024-03-08T10:46:51;8.20;;;4.20;;
49962;SDS011;36180;57.678;11.910;2024-03-08T10:49:30;6.95;;;4.25;;
49962;SDS011;36180;57.678;11.910;2024-03-08T10:52:01;11.02;;;4.53;;
49962;SDS011;36180;57.678;11.910;2024-03-08T10:54:30;9.23;;;4.03;;
49962;SDS011;36180;57.678;11.910;2024-03-08T10:56:58;6.57;;;4.00;;
49962;SDS011;36180;57.678;11.910;2024-03-08T10:59:27;8.90;;;4.07;;
49962;SDS011;36180;57.678;11.910;2024-03-08T11:01:55;8.43;;;4.32;;
49962;SDS011;36180;57.678;11.910;2024-03-08T11:04:22;8.70;;;4.18;;
49962;SDS011;36180;57.678;11.910;2024-03-08T11:06:50;5.75;;;3.42;;
49962;SDS011;36180;57.678;11.910;2024-03-08T11:09:27;10.52;;;4.15;;
49962;SDS011;36180;57.678;11.910;2024-03-08T11:14:47;10.02;;;4.00;;
49962;SDS011;36180;57.678;11.910;2024-03-08T11:17:15;7.90;;;3.40;;
49962;SDS011;36180;57.678;11.910;2024-03-08T11:19:47;7.28;;;3.25;;
49962;SDS011;36180;57.678;11.910;2024-03-08T11:22:21;7.00;;;3.50;;
49962;SDS011;36180;57.678;11.910;2024-03-08T11:24:52;7.10;;;3.30;;
49962;SDS011;36180;57.678;11.910;2024-03-08T11:27:20;8.52;;;3.40;;
49962;SDS011;36180;57.678;11.910;2024-03-08T11:30:01;7.18;;;2.80;;
49962;SDS011;36180;57.678;11.910;2024-03-08T11:32:36;7.30;;;2.90;;
49962;SDS011;36180;57.678;11.910;2024-03-08T11:35:05;7.35;;;2.80;;
49962;SDS011;36180;57.678;11.910;2024-03-08T11:37:34;10.38;;;2.75;;
49962;SDS011;36180;57.678;11.910;2024-03-08T11:40:01;5.13;;;3.20;;
49962;SDS011;36180;57.678;11.910;2024-03-08T11:42:31;9.50;;;3.90;;
49962;SDS011;36180;57.678;11.910;2024-03-08T11:44:58;12.02;;;5.63;;
49962;SDS011;36180;57.678;11.910;2024-03-08T11:47:25;9.30;;;3.60;;
49962;SDS011;36180;57.678;11.910;2024-03-08T11:49:52;7.97;;;3.63;;
49962;SDS011;36180;57.678;11.910;2024-03-08T11:52:19;8.65;;;3.58;;
49962;SDS011;36180;57.678;11.910;2024-03-08T11:54:48;7.05;;;3.20;;
49962;SDS011;36180;57.678;11.910;2024-03-08T11:57:19;5.57;;;3.30;;
49962;SDS011;36180;57.678;11.910;2024-03-08T11:59:50;6.57;;;3.40;;
49962;SDS011;36180;57.678;11.910;2024-03-08T12:02:17;5.32;;;3.03;;
49962;SDS011;36180;57.678;11.910;2024-03-08T12:04:45;3.83;;;2.58;;
49962;SDS011;36180;57.678;11.910;2024-03-08T12:07:12;7.90;;;3.33;;
49962;SDS011;36180;57.678;11.910;2024-03-08T12:09:39;8.75;;;3.45;;
49962;SDS011;36180;57.678;11.910;2024-03-08T12:12:11;6.07;;;3.20;;
49962;SDS011;36180;57.678;11.910;2024-03-08T12:14:38;7.82;;;2.92;;
49962;SDS011;36180;57.678;11.910;2024-03-08T12:17:10;5.25;;;3.30;;
49962;SDS011;36180;57.678;11.910;2024-03-08T12:19:37;5.78;;;2.45;;
49962;SDS011;36180;57.678;11.910;2024-03-08T12:22:07;5.38;;;2.50;;
49962;SDS011;36180;57.678;11.910;2024-03-08T12:24:36;4.13;;;2.60;;
49962;SDS011;36180;57.678;11.910;2024-03-08T12:27:17;11.55;;;4.88;;
49962;SDS011;36180;57.678;11.910;2024-03-08T12:29:44;5.13;;;2.90;;
49962;SDS011;36180;57.678;11.910;2024-03-08T12:32:13;6.85;;;2.65;;
49962;SDS011;36180;57.678;11.910;2024-03-08T12:34:40;2.80;;;2.35;;
49962;SDS011;36180;57.678;11.910;2024-03-08T12:37:07;5.22;;;2.70;;
49962;SDS011;36180;57.678;11.910;2024-03-08T12:39:35;5.80;;;2.20;;
49962;SDS011;36180;57.678;11.910;2024-03-08T12:42:03;5.45;;;2.50;;
49962;SDS011;36180;57.678;11.910;2024-03-08T12:44:31;4.78;;;2.20;;
49962;SDS011;36180;57.678;11.910;2024-03-08T12:46:58;6.28;;;2.40;;
49962;SDS011;36180;57.678;11.910;2024-03-08T12:49:26;3.90;;;2.72;;
49962;SDS011;36180;57.678;11.910;2024-03-08T12:51:53;5.15;;;2.50;;
49962;SDS011;36180;57.678;11.910;2024-03-08T12:54:20;6.18;;;2.90;;
49962;SDS011;36180;57.678;11.910;2024-03-08T12:56:49;6.55;;;2.90;;
49962;SDS011;36180;57.678;11.910;2024-03-08T12:59:18;3.67;;;2.35;;
49962;SDS011;36180;57.678;11.910;2024-03-08T13:01:46;4.82;;;2.55;;
49962;SDS011;36180;57.678;11.910;2024-03-08T13:04:16;4.97;;;2.50;;
49962;SDS011;36180;57.678;11.910;2024-03-08T13:06:45;4.60;;;2.63;;
49962;SDS011;36180;57.678;11.910;2024-03-08T13:09:15;4.28;;;1.90;;
49962;SDS011;36180;57.678;11.910;2024-03-08T13:11:44;8.93;;;3.42;;
49962;SDS011;36180;57.678;11.910;2024-03-08T13:14:11;8.35;;;2.13;;
49962;SDS011;36180;57.678;11.910;2024-03-08T13:16:38;3.88;;;2.28;;
49962;SDS011;36180;57.678;11.910;2024-03-08T13:19:05;4.88;;;2.53;;
49962;SDS011;36180;57.678;11.910;2024-03-08T13:21:32;5.85;;;2.45;;
49962;SDS011;36180;57.678;11.910;2024-03-08T13:24:02;6.32;;;2.40;;
49962;SDS011;36180;57.678;11.910;2024-03-08T13:26:29;4.45;;;2.30;;
49962;SDS011;36180;57.678;11.910;2024-03-08T13:28:57;3.92;;;2.08;;
49962;SDS011;36180;57.678;11.910;2024-03-08T13:31:25;6.93;;;2.50;;
49962;SDS011;36180;57.678;11.910;2024-03-08T13:33:52;4.05;;;2.08;;
49962;SDS011;36180;57.678;11.910;2024-03-08T13:36:23;4.72;;;2.30;;
49962;SDS011;36180;57.678;11.910;2024-03-08T13:38:54;4.45;;;2.03;;
49962;SDS011;36180;57.678;11.910;2024-03-08T13:41:25;4.72;;;2.13;;
49962;SDS011;36180;57.678;11.910;2024-03-08T13:43:52;3.63;;;2.00;;
49962;SDS011;36180;57.678;11.910;2024-03-08T13:46:21;3.47;;;2.17;;
49962;SDS011;36180;57.678;11.910;2024-03-08T13:48:47;3.63;;;2.05;;
49962;SDS011;36180;57.678;11.910;2024-03-08T13:51:17;2.70;;;2.08;;
49962;SDS011;36180;57.678;11.910;2024-03-08T13:53:45;4.63;;;2.00;;
49962;SDS011;36180;57.678;11.910;2024-03-08T13:56:12;5.93;;;2.97;;
49962;SDS011;36180;57.678;11.910;2024-03-08T13:58:41;5.25;;;2.97;;
49962;SDS011;36180;57.678;11.910;2024-03-08T14:01:09;7.35;;;2.67;;
49962;SDS011;36180;57.678;11.910;2024-03-08T14:03:36;6.80;;;2.97;;
49962;SDS011;36180;57.678;11.910;2024-03-08T14:06:07;6.90;;;3.03;;
49962;SDS011;36180;57.678;11.910;2024-03-08T14:08:34;2.35;;;2.13;;
49962;SDS011;36180;57.678;11.910;2024-03-08T14:11:03;4.72;;;2.17;;
49962;SDS011;36180;57.678;11.910;2024-03-08T14:13:41;4.97;;;2.35;;
49962;SDS011;36180;57.678;11.910;2024-03-08T14:16:10;4.05;;;1.95;;
49962;SDS011;36180;57.678;11.910;2024-03-08T14:18:37;3.58;;;2.10;;
49962;SDS011;36180;57.678;11.910;2024-03-08T14:21:04;3.03;;;1.88;;
49962;SDS011;36180;57.678;11.910;2024-03-08T14:23:33;4.00;;;2.40;;
49962;SDS011;36180;57.678;11.910;2024-03-08T14:26:01;4.50;;;1.90;;
49962;SDS011;36180;57.678;11.910;2024-03-08T14:28:28;2.00;;;1.67;;
49962;SDS011;36180;57.678;11.910;2024-03-08T14:30:58;11.48;;;2.55;;